sensor_id;sensor_type;location;lat;lon;timestamp;pressure;altitude;pressure_sealevel;temperature;humidity
5872;BME280;2962;51.312;7.378;2023-10-13T00:01:55;97239.91;;;14.96;100.00
5872;BME280;2962;51.312;7.378;2023-10-13T00:04:21;97235.47;;;15.09;100.00
5872;BME280;2962;51.312;7.378;2023-10-13T00:06:47;97237.88;;;15.04;100.00
5872;BME280;2962;51.312;7.378;2023-10-13T00:09:13;97224.16;;;15.07;100.00
5872;BME280;2962;51.312;7.378;2023-10-13T00:11:42;97241.38;;;15.11;100.00
5872;BME280;2962;51.312;7.378;2023-10-13T00:14:13;97233.91;;;15.12;100.00
5872;BME280;2962;51.312;7.378;2023-10-13T00:16:43;97213.22;;;15.00;100.00
5872;BME280;2962;51.312;7.378;2023-10-13T00:19:26;97236.72;;;15.01;100.00
5872;BME280;2962;51.312;7.378;2023-10-13T00:21:52;97222.56;;;15.06;100.00
5872;BME280;2962;51.312;7.378;2023-10-13T00:24:20;97225.38;;;15.03;100.00
5872;BME280;2962;51.312;7.378;2023-10-13T00:26:48;97228.50;;;15.01;100.00
5872;BME280;2962;51.312;7.378;2023-10-13T00:29:14;97221.84;;;14.99;100.00
5872;BME280;2962;51.312;7.378;2023-10-13T00:31:43;97219.03;;;15.06;100.00
5872;BME280;2962;51.312;7.378;2023-10-13T00:34:09;97203.44;;;14.99;100.00
5872;BME280;2962;51.312;7.378;2023-10-13T00:36:38;97209.69;;;15.03;100.00
5872;BME280;2962;51.312;7.378;2023-10-13T00:39:13;97213.19;;;15.07;100.00
5872;BME280;2962;51.312;7.378;2023-10-13T00:41:42;97202.94;;;15.15;100.00
5872;BME280;2962;51.312;7.378;2023-10-13T00:44:18;97211.19;;;15.11;100.00
5872;BME280;2962;51.312;7.378;2023-10-13T00:46:51;97202.59;;;15.06;100.00
5872;BME280;2962;51.312;7.378;2023-10-13T00:49:21;97196.31;;;15.05;100.00
5872;BME280;2962;51.312;7.378;2023-10-13T00:51:48;97192.06;;;14.97;100.00
5872;BME280;2962;51.312;7.378;2023-10-13T00:54:15;97196.75;;;15.04;100.00
5872;BME280;2962;51.312;7.378;2023-10-13T00:56:45;97187.81;;;14.93;100.00
5872;BME280;2962;51.312;7.378;2023-10-13T00:59:15;97185.09;;;14.85;100.00
5872;BME280;2962;51.312;7.378;2023-10-13T01:01:41;97189.78;;;14.92;100.00
5872;BME280;2962;51.312;7.378;2023-10-13T01:04:10;97183.53;;;14.88;100.00
5872;BME280;2962;51.312;7.378;2023-10-13T01:06:38;97185.53;;;14.84;100.00
5872;BME280;2962;51.312;7.378;2023-10-13T01:09:08;97186.28;;;14.88;100.00
5872;BME280;2962;51.312;7.378;2023-10-13T01:11:47;97184.34;;;14.85;100.00
5872;BME280;2962;51.312;7.378;2023-10-13T01:14:14;97180.75;;;14.92;100.00
5872;BME280;2962;51.312;7.378;2023-10-13T01:16:44;97177.63;;;14.89;100.00
5872;BME280;2962;51.312;7.378;2023-10-13T01:19:16;97179.56;;;14.96;100.00
5872;BME280;2962;51.312;7.378;2023-10-13T01:21:49;97172.91;;;14.94;100.00
5872;BME280;2962;51.312;7.378;2023-10-13T01:24:14;97164.72;;;14.86;100.00
5872;BME280;2962;51.312;7.378;2023-10-13T01:26:43;97157.25;;;14.87;100.00
5872;BME280;2962;51.312;7.378;2023-10-13T01:29:08;97160.41;;;14.85;100.00
5872;BME280;2962;51.312;7.378;2023-10-13T01:31:38;97151.84;;;14.80;100.00
5872;BME280;2962;51.312;7.378;2023-10-13T01:34:11;97158.47;;;14.86;100.00
5872;BME280;2962;51.312;7.378;2023-10-13T01:36:38;97156.94;;;14.81;100.00
5872;BME280;2962;51.312;7.378;2023-10-13T01:39:05;97151.41;;;14.85;100.00
5872;BME280;2962;51.312;7.378;2023-10-13T01:41:31;97137.31;;;14.83;100.00
5872;BME280;2962;51.312;7.378;2023-10-13T01:43:56;97150.59;;;14.92;100.00
5872;BME280;2962;51.312;7.378;2023-10-13T01:46:22;97137.31;;;14.83;100.00
5872;BME280;2962;51.312;7.378;2023-10-13T01:48:47;97147.44;;;14.93;100.00
5872;BME280;2962;51.312;7.378;2023-10-13T01:51:13;97147.47;;;14.86;100.00
5872;BME280;2962;51.312;7.378;2023-10-13T01:53:39;97135.72;;;14.89;100.00
5872;BME280;2962;51.312;7.378;2023-10-13T01:56:05;97136.16;;;14.84;100.00
5872;BME280;2962;51.312;7.378;2023-10-13T01:58:36;97122.72;;;14.97;100.00
5872;BME280;2962;51.312;7.378;2023-10-13T02:01:01;97129.03;;;14.90;100.00
5872;BME280;2962;51.312;7.378;2023-10-13T02:03:27;97129.06;;;14.86;100.00
5872;BME280;2962;51.312;7.378;2023-10-13T02:05:55;97124.75;;;14.89;100.00
5872;BME280;2962;51.312;7.378;2023-10-13T02:08:23;97115.44;;;14.76;100.00
5872;BME280;2962;51.312;7.378;2023-10-13T02:10:51;97120.84;;;14.86;100.00
5872;BME280;2962;51.312;7.378;2023-10-13T02:13:17;97111.50;;;14.80;100.00
5872;BME280;2962;51.312;7.378;2023-10-13T02:15:44;97102.53;;;14.73;100.00
5872;BME280;2962;51.312;7.378;2023-10-13T02:18:12;97115.72;;;14.88;100.00
5872;BME280;2962;51.312;7.378;2023-10-13T02:20:38;97102.06;;;14.81;100.00
5872;BME280;2962;51.312;7.378;2023-10-13T02:23:11;97095.44;;;14.75;100.00
5872;BME280;2962;51.312;7.378;2023-10-13T02:25:36;97091.94;;;14.75;100.00
5872;BME280;2962;51.312;7.378;2023-10-13T02:28:09;97085.69;;;14.74;100.00
5872;BME280;2962;51.312;7.378;2023-10-13T02:30:46;97079.84;;;14.72;100.00
5872;BME280;2962;51.312;7.378;2023-10-13T02:33:15;97083.34;;;14.73;100.00
5872;BME280;2962;51.312;7.378;2023-10-13T02:35:46;97062.22;;;14.70;100.00
5872;BME280;2962;51.312;7.378;2023-10-13T02:38:19;97070.41;;;14.73;100.00
5872;BME280;2962;51.312;7.378;2023-10-13T02:40:53;97058.28;;;14.71;100.00
5872;BME280;2962;51.312;7.378;2023-10-13T02:43:20;97060.56;;;14.76;100.00
5872;BME280;2962;51.312;7.378;2023-10-13T02:45:52;97057.84;;;14.76;100.00
5872;BME280;2962;51.312;7.378;2023-10-13T02:48:22;97057.03;;;14.79;100.00
5872;BME280;2962;51.312;7.378;2023-10-13T02:50:55;97070.75;;;14.79;100.00
5872;BME280;2962;51.312;7.378;2023-10-13T02:53:21;97062.13;;;14.80;100.00
5872;BME280;2962;51.312;7.378;2023-10-13T02:55:53;97051.97;;;14.77;100.00
5872;BME280;2962;51.312;7.378;2023-10-13T02:58:20;97055.88;;;14.80;100.00
5872;BME280;2962;51.312;7.378;2023-10-13T03:00:46;97038.31;;;14.70;100.00
5872;BME280;2962;51.312;7.378;2023-10-13T03:03:11;97029.69;;;14.68;100.00
5872;BME280;2962;51.312;7.378;2023-10-13T03:05:39;97032.34;;;14.79;100.00
5872;BME280;2962;51.312;7.378;2023-10-13T03:08:05;97039.00;;;14.81;100.00
5872;BME280;2962;51.312;7.378;2023-10-13T03:10:31;97033.16;;;14.76;100.00
5872;BME280;2962;51.312;7.378;2023-10-13T03:12:57;97045.66;;;14.84;100.00
5872;BME280;2962;51.312;7.378;2023-10-13T03:15:23;97032.00;;;14.77;100.00
5872;BME280;2962;51.312;7.378;2023-10-13T03:17:55;97026.94;;;14.72;100.00
5872;BME280;2962;51.312;7.378;2023-10-13T03:20:23;97034.75;;;14.73;100.00
5872;BME280;2962;51.312;7.378;2023-10-13T03:22:58;97020.97;;;14.84;100.00
5872;BME280;2962;51.312;7.378;2023-10-13T03:25:24;97018.28;;;14.77;100.00
5872;BME280;2962;51.312;7.378;2023-10-13T03:28:10;97006.94;;;14.75;100.00
5872;BME280;2962;51.312;7.378;2023-10-13T03:30:39;97001.09;;;14.73;100.00
5872;BME280;2962;51.312;7.378;2023-10-13T03:33:08;96990.09;;;14.76;100.00
5872;BME280;2962;51.312;7.378;2023-10-13T03:35:38;96990.50;;;14.71;100.00
5872;BME280;2962;51.312;7.378;2023-10-13T03:38:06;96987.38;;;14.73;100.00
5872;BME280;2962;51.312;7.378;2023-10-13T03:40:42;96988.47;;;14.79;100.00
5872;BME280;2962;51.312;7.378;2023-10-13T03:43:11;96968.56;;;14.71;100.00
5872;BME280;2962;51.312;7.378;2023-10-13T03:45:39;96979.47;;;14.78;100.00
5872;BME280;2962;51.312;7.378;2023-10-13T03:48:12;96971.59;;;14.84;100.00
5872;BME280;2962;51.312;7.378;2023-10-13T03:50:50;96962.97;;;14.82;100.00
5872;BME280;2962;51.312;7.378;2023-10-13T03:53:38;96956.34;;;14.79;100.00
5872;BME280;2962;51.312;7.378;2023-10-13T03:56:18;96958.66;;;14.84;100.00
5872;BME280;2962;51.312;7.378;2023-10-13T03:58:52;96966.81;;;14.92;100.00
5872;BME280;2962;51.312;7.378;2023-10-13T04:01:19;96951.94;;;14.89;100.00
5872;BME280;2962;51.312;7.378;2023-10-13T04:03:50;96965.63;;;14.93;100.00
5872;BME280;2962;51.312;7.378;2023-10-13T04:06:36;96943.63;;;14.96;100.00
5872;BME280;2962;51.312;7.378;2023-10-13T04:09:18;96934.94;;;15.01;100.00
5872;BME280;2962;51.312;7.378;2023-10-13T04:11:52;96939.69;;;14.97;100.00
5872;BME280;2962;51.312;7.378;2023-10-13T04:14:42;96951.38;;;15.05;100.00
5872;BME280;2962;51.312;7.378;2023-10-13T04:17:23;96931.84;;;14.99;100.00
5872;BME280;2962;51.312;7.378;2023-10-13T04:19:51;96938.50;;;14.98;100.00
5872;BME280;2962;51.312;7.378;2023-10-13T04:22:37;96931.38;;;15.04;100.00
5872;BME280;2962;51.312;7.378;2023-10-13T04:25:22;96936.09;;;15.04;100.00
5872;BME280;2962;51.312;7.378;2023-10-13T04:28:13;96919.31;;;14.98;100.00
5872;BME280;2962;51.312;7.378;2023-10-13T04:33:30;96912.97;;;15.05;100.00
5872;BME280;2962;51.312;7.378;2023-10-13T04:36:14;96918.50;;;15.01;100.00
5872;BME280;2962;51.312;7.378;2023-10-13T04:38:55;96905.59;;;14.98;100.00
5872;BME280;2962;51.312;7.378;2023-10-13T04:41:31;96913.38;;;15.03;100.00
5872;BME280;2962;51.312;7.378;2023-10-13T04:44:03;96896.63;;;14.94;100.00
5872;BME280;2962;51.312;7.378;2023-10-13T04:46:47;96881.41;;;14.89;100.00
5872;BME280;2962;51.312;7.378;2023-10-13T04:49:13;96897.31;;;15.02;100.00
5872;BME280;2962;51.312;7.378;2023-10-13T04:52:01;96875.38;;;15.02;100.00
5872;BME280;2962;51.312;7.378;2023-10-13T04:54:33;96881.19;;;15.07;100.00
5872;BME280;2962;51.312;7.378;2023-10-13T04:57:11;96858.88;;;15.05;100.00
5872;BME280;2962;51.312;7.378;2023-10-13T04:59:55;96878.44;;;15.07;100.00
5872;BME280;2962;51.312;7.378;2023-10-13T05:02:40;96864.81;;;15.00;100.00
5872;BME280;2962;51.312;7.378;2023-10-13T05:05:15;96864.34;;;15.05;100.00
5872;BME280;2962;51.312;7.378;2023-10-13T05:07:44;96865.81;;;15.13;100.00
5872;BME280;2962;51.312;7.378;2023-10-13T05:10:32;96856.53;;;15.04;100.00
5872;BME280;2962;51.312;7.378;2023-10-13T05:13:16;96864.25;;;15.12;100.00
5872;BME280;2962;51.312;7.378;2023-10-13T05:16:00;96845.44;;;15.14;100.00
5872;BME280;2962;51.312;7.378;2023-10-13T05:18:44;96847.78;;;15.12;100.00
5872;BME280;2962;51.312;7.378;2023-10-13T05:21:28;96855.72;;;15.07;100.00
5872;BME280;2962;51.312;7.378;2023-10-13T05:24:12;96859.50;;;15.17;100.00
5872;BME280;2962;51.312;7.378;2023-10-13T05:26:56;96837.38;;;15.00;100.00
5872;BME280;2962;51.312;7.378;2023-10-13T05:29:41;96854.06;;;15.13;100.00
5872;BME280;2962;51.312;7.378;2023-10-13T05:32:26;96874.78;;;15.18;100.00
5872;BME280;2962;51.312;7.378;2023-10-13T05:35:10;96874.41;;;15.16;100.00
5872;BME280;2962;51.312;7.378;2023-10-13T05:37:54;96845.88;;;15.09;100.00
5872;BME280;2962;51.312;7.378;2023-10-13T05:40:38;96850.91;;;15.14;100.00
5872;BME280;2962;51.312;7.378;2023-10-13T05:43:22;96849.44;;;15.06;100.00
5872;BME280;2962;51.312;7.378;2023-10-13T05:46:06;96835.28;;;15.11;100.00
5872;BME280;2962;51.312;7.378;2023-10-13T05:48:50;96849.72;;;15.16;100.00
5872;BME280;2962;51.312;7.378;2023-10-13T05:51:26;96866.09;;;15.23;100.00
5872;BME280;2962;51.312;7.378;2023-10-13T05:53:59;96869.63;;;15.23;100.00
5872;BME280;2962;51.312;7.378;2023-10-13T05:56:49;96869.66;;;15.20;100.00
5872;BME280;2962;51.312;7.378;2023-10-13T05:59:35;96863.44;;;15.16;100.00
5872;BME280;2962;51.312;7.378;2023-10-13T06:02:20;96876.22;;;15.26;100.00
5872;BME280;2962;51.312;7.378;2023-10-13T06:05:06;96877.94;;;15.16;100.00
5872;BME280;2962;51.312;7.378;2023-10-13T06:07:50;96882.94;;;15.21;100.00
5872;BME280;2962;51.312;7.378;2023-10-13T06:10:34;96884.88;;;15.24;100.00
5872;BME280;2962;51.312;7.378;2023-10-13T06:13:18;96885.69;;;15.21;100.00
5872;BME280;2962;51.312;7.378;2023-10-13T06:16:07;96888.72;;;15.30;100.00
5872;BME280;2962;51.312;7.378;2023-10-13T06:18:50;96895.66;;;15.38;100.00
5872;BME280;2962;51.312;7.378;2023-10-13T06:21:34;96906.97;;;15.44;100.00
5872;BME280;2962;51.312;7.378;2023-10-13T06:24:18;96903.09;;;15.42;100.00
5872;BME280;2962;51.312;7.378;2023-10-13T06:27:02;96901.97;;;15.35;100.00
5872;BME280;2962;51.312;7.378;2023-10-13T06:29:46;96917.22;;;15.40;100.00
5872;BME280;2962;51.312;7.378;2023-10-13T06:32:12;96922.34;;;15.38;100.00
5872;BME280;2962;51.312;7.378;2023-10-13T06:34:38;96910.94;;;15.39;100.00
5872;BME280;2962;51.312;7.378;2023-10-13T06:37:07;96911.75;;;15.36;100.00
5872;BME280;2962;51.312;7.378;2023-10-13T06:39:55;96871.94;;;15.25;100.00
5872;BME280;2962;51.312;7.378;2023-10-13T06:42:27;96885.81;;;15.41;100.00
5872;BME280;2962;51.312;7.378;2023-10-13T06:44:57;96869.47;;;15.34;100.00
5872;BME280;2962;51.312;7.378;2023-10-13T06:47:23;96881.53;;;15.40;100.00
5872;BME280;2962;51.312;7.378;2023-10-13T06:49:49;96876.75;;;15.44;100.00
5872;BME280;2962;51.312;7.378;2023-10-13T06:52:17;96856.09;;;15.36;100.00
5872;BME280;2962;51.312;7.378;2023-10-13T06:54:42;96845.00;;;15.43;100.00
5872;BME280;2962;51.312;7.378;2023-10-13T06:57:08;96852.06;;;15.44;100.00
5872;BME280;2962;51.312;7.378;2023-10-13T06:59:40;96808.41;;;15.26;100.00
5872;BME280;2962;51.312;7.378;2023-10-13T07:02:06;96835.97;;;15.46;100.00
5872;BME280;2962;51.312;7.378;2023-10-13T07:04:33;96808.06;;;15.48;100.00
5872;BME280;2962;51.312;7.378;2023-10-13T07:06:58;96806.53;;;15.47;100.00
5872;BME280;2962;51.312;7.378;2023-10-13T07:09:26;96806.47;;;15.50;100.00
5872;BME280;2962;51.312;7.378;2023-10-13T07:12:04;96796.22;;;15.54;100.00
5872;BME280;2962;51.312;7.378;2023-10-13T07:14:32;96794.66;;;15.53;100.00
5872;BME280;2962;51.312;7.378;2023-10-13T07:17:05;96782.91;;;15.53;100.00
5872;BME280;2962;51.312;7.378;2023-10-13T07:19:33;96825.22;;;15.55;100.00
5872;BME280;2962;51.312;7.378;2023-10-13T07:22:01;96813.50;;;15.51;100.00
5872;BME280;2962;51.312;7.378;2023-10-13T07:24:46;96822.47;;;15.55;100.00
5872;BME280;2962;51.312;7.378;2023-10-13T07:27:20;96818.97;;;15.55;100.00
5872;BME280;2962;51.312;7.378;2023-10-13T07:29:54;96810.38;;;15.53;100.00
5872;BME280;2962;51.312;7.378;2023-10-13T07:32:38;96815.78;;;15.56;100.00
5872;BME280;2962;51.312;7.378;2023-10-13T07:35:11;96811.09;;;15.57;100.00
5872;BME280;2962;51.312;7.378;2023-10-13T07:37:36;96801.16;;;15.63;100.00
5872;BME280;2962;51.312;7.378;2023-10-13T07:40:03;96812.13;;;15.67;100.00
5872;BME280;2962;51.312;7.378;2023-10-13T07:42:46;96785.81;;;15.69;100.00
5872;BME280;2962;51.312;7.378;2023-10-13T07:45:12;96798.81;;;15.65;100.00
5872;BME280;2962;51.312;7.378;2023-10-13T07:47:37;96781.19;;;15.62;100.00
5872;BME280;2962;51.312;7.378;2023-10-13T07:50:04;96774.81;;;15.69;100.00
5872;BME280;2962;51.312;7.378;2023-10-13T07:52:31;96794.06;;;15.69;100.00
5872;BME280;2962;51.312;7.378;2023-10-13T07:55:06;96776.75;;;15.72;100.00
5872;BME280;2962;51.312;7.378;2023-10-13T07:57:40;96792.03;;;15.73;100.00
5872;BME280;2962;51.312;7.378;2023-10-13T08:00:26;96781.81;;;15.74;100.00
5872;BME280;2962;51.312;7.378;2023-10-13T08:02:58;96791.13;;;15.80;100.00
5872;BME280;2962;51.312;7.378;2023-10-13T08:05:35;96780.00;;;15.87;100.00
5872;BME280;2962;51.312;7.378;2023-10-13T08:08:27;96778.44;;;15.86;100.00
5872;BME280;2962;51.312;7.378;2023-10-13T08:11:03;96796.78;;;15.93;100.00
5872;BME280;2962;51.312;7.378;2023-10-13T08:13:35;96763.13;;;15.89;100.00
5872;BME280;2962;51.312;7.378;2023-10-13T08:16:02;96774.38;;;15.94;100.00
5872;BME280;2962;51.312;7.378;2023-10-13T08:18:47;96779.03;;;15.97;100.00
5872;BME280;2962;51.312;7.378;2023-10-13T08:21:17;96780.53;;;16.02;100.00
5872;BME280;2962;51.312;7.378;2023-10-13T08:23:43;96762.91;;;15.99;100.00
5872;BME280;2962;51.312;7.378;2023-10-13T08:26:22;96752.72;;;16.00;100.00
5872;BME280;2962;51.312;7.378;2023-10-13T08:29:06;96765.03;;;16.11;100.00
5872;BME280;2962;51.312;7.378;2023-10-13T08:31:50;96765.38;;;16.14;100.00
5872;BME280;2962;51.312;7.378;2023-10-13T08:34:34;96745.31;;;16.17;100.00
5872;BME280;2962;51.312;7.378;2023-10-13T08:37:13;96796.56;;;16.27;100.00
5872;BME280;2962;51.312;7.378;2023-10-13T08:40:00;96740.88;;;16.43;100.00
5872;BME280;2962;51.312;7.378;2023-10-13T08:42:37;96772.31;;;16.62;100.00
5872;BME280;2962;51.312;7.378;2023-10-13T08:45:14;96773.72;;;16.70;100.00
5872;BME280;2962;51.312;7.378;2023-10-13T08:47:56;96766.56;;;16.76;100.00
5872;BME280;2962;51.312;7.378;2023-10-13T08:50:42;96765.47;;;16.90;100.00
5872;BME280;2962;51.312;7.378;2023-10-13T08:53:31;96757.63;;;16.88;100.00
5872;BME280;2962;51.312;7.378;2023-10-13T08:55:58;96748.56;;;17.07;100.00
5872;BME280;2962;51.312;7.378;2023-10-13T08:58:27;96741.16;;;17.37;100.00
5872;BME280;2962;51.312;7.378;2023-10-13T09:01:12;96762.25;;;17.44;100.00
5872;BME280;2962;51.312;7.378;2023-10-13T09:03:40;96761.47;;;17.60;100.00
5872;BME280;2962;51.312;7.378;2023-10-13T09:06:12;96732.66;;;17.80;100.00
5872;BME280;2962;51.312;7.378;2023-10-13T09:08:40;96745.91;;;17.86;100.00
5872;BME280;2962;51.312;7.378;2023-10-13T09:11:25;96732.97;;;17.99;100.00
5872;BME280;2962;51.312;7.378;2023-10-13T09:13:52;96739.91;;;18.03;100.00
5872;BME280;2962;51.312;7.378;2023-10-13T09:16:17;96727.72;;;18.17;100.00
5872;BME280;2962;51.312;7.378;2023-10-13T09:19:08;96726.47;;;18.05;100.00
5872;BME280;2962;51.312;7.378;2023-10-13T09:21:40;96709.75;;;17.84;100.00
5872;BME280;2962;51.312;7.378;2023-10-13T09:24:08;96737.34;;;17.96;100.00
5872;BME280;2962;51.312;7.378;2023-10-13T09:26:53;96734.91;;;17.98;100.00
5872;BME280;2962;51.312;7.378;2023-10-13T09:29:21;96736.31;;;17.90;100.00
5872;BME280;2962;51.312;7.378;2023-10-13T09:31:47;96719.91;;;18.16;100.00
5872;BME280;2962;51.312;7.378;2023-10-13T09:34:23;96724.75;;;18.53;100.00
5872;BME280;2962;51.312;7.378;2023-10-13T09:36:54;96708.41;;;18.59;100.00
5872;BME280;2962;51.312;7.378;2023-10-13T09:39:24;96698.63;;;18.71;100.00
5872;BME280;2962;51.312;7.378;2023-10-13T09:42:01;96698.50;;;18.62;100.00
5872;BME280;2962;51.312;7.378;2023-10-13T09:44:26;96710.09;;;18.57;100.00
5872;BME280;2962;51.312;7.378;2023-10-13T09:47:03;96706.66;;;18.65;100.00
5872;BME280;2962;51.312;7.378;2023-10-13T09:49:44;96682.59;;;18.53;100.00
5872;BME280;2962;51.312;7.378;2023-10-13T09:52:13;96682.16;;;18.67;100.00
5872;BME280;2962;51.312;7.378;2023-10-13T09:54:56;96684.75;;;18.87;100.00
5872;BME280;2962;51.312;7.378;2023-10-13T09:57:34;96702.50;;;18.73;100.00
5872;BME280;2962;51.312;7.378;2023-10-13T10:00:06;96703.63;;;18.89;100.00
5872;BME280;2962;51.312;7.378;2023-10-13T10:02:52;96690.38;;;18.84;100.00
5872;BME280;2962;51.312;7.378;2023-10-13T10:05:25;96689.25;;;18.81;100.00
5872;BME280;2962;51.312;7.378;2023-10-13T10:07:57;96694.13;;;19.15;100.00
5872;BME280;2962;51.312;7.378;2023-10-13T10:10:48;96692.69;;;19.11;100.00
5872;BME280;2962;51.312;7.378;2023-10-13T10:13:27;96656.75;;;19.23;100.00
5872;BME280;2962;51.312;7.378;2023-10-13T10:16:07;96681.34;;;19.43;100.00
5872;BME280;2962;51.312;7.378;2023-10-13T10:18:34;96663.00;;;19.49;100.00
5872;BME280;2962;51.312;7.378;2023-10-13T10:21:05;96665.00;;;19.49;100.00
5872;BME280;2962;51.312;7.378;2023-10-13T10:23:33;96660.78;;;19.44;100.00
5872;BME280;2962;51.312;7.378;2023-10-13T10:26:11;96668.53;;;19.49;100.00
5872;BME280;2962;51.312;7.378;2023-10-13T10:28:40;96663.66;;;19.54;100.00
5872;BME280;2962;51.312;7.378;2023-10-13T10:31:09;96651.13;;;19.96;100.00
5872;BME280;2962;51.312;7.378;2023-10-13T10:33:38;96651.75;;;19.79;100.00
5872;BME280;2962;51.312;7.378;2023-10-13T10:36:04;96662.22;;;19.62;100.00
5872;BME280;2962;51.312;7.378;2023-10-13T10:38:30;96661.34;;;19.65;100.00
5872;BME280;2962;51.312;7.378;2023-10-13T10:41:01;96680.56;;;19.68;100.00
5872;BME280;2962;51.312;7.378;2023-10-13T10:43:34;96663.47;;;19.83;100.00
5872;BME280;2962;51.312;7.378;2023-10-13T10:46:15;96675.19;;;20.31;100.00
5872;BME280;2962;51.312;7.378;2023-10-13T10:48:44;96667.13;;;20.45;100.00
5872;BME280;2962;51.312;7.378;2023-10-13T10:51:11;96667.31;;;20.29;100.00
5872;BME280;2962;51.312;7.378;2023-10-13T10:53:53;96637.81;;;20.26;100.00
5872;BME280;2962;51.312;7.378;2023-10-13T10:56:23;96637.81;;;20.26;100.00
5872;BME280;2962;51.312;7.378;2023-10-13T10:59:01;96659.88;;;20.17;100.00
5872;BME280;2962;51.312;7.378;2023-10-13T11:01:28;96627.94;;;20.25;100.00
5872;BME280;2962;51.312;7.378;2023-10-13T11:04:00;96629.59;;;20.44;100.00
5872;BME280;2962;51.312;7.378;2023-10-13T11:06:33;96623.06;;;20.51;100.00
5872;BME280;2962;51.312;7.378;2023-10-13T11:09:04;96639.75;;;20.69;100.00
5872;BME280;2962;51.312;7.378;2023-10-13T11:11:44;96616.28;;;20.83;100.00
5872;BME280;2962;51.312;7.378;2023-10-13T11:14:19;96617.53;;;21.01;100.00
5872;BME280;2962;51.312;7.378;2023-10-13T11:16:48;96632.22;;;21.29;100.00
5872;BME280;2962;51.312;7.378;2023-10-13T11:19:18;96611.78;;;21.35;100.00
5872;BME280;2962;51.312;7.378;2023-10-13T11:21:51;96632.59;;;21.67;100.00
5872;BME280;2962;51.312;7.378;2023-10-13T11:24:18;96625.72;;;21.13;100.00
5872;BME280;2962;51.312;7.378;2023-10-13T11:26:43;96570.53;;;21.37;100.00
5872;BME280;2962;51.312;7.378;2023-10-13T11:29:31;96585.31;;;21.34;100.00
5872;BME280;2962;51.312;7.378;2023-10-13T11:31:59;96600.16;;;21.09;100.00
5872;BME280;2962;51.312;7.378;2023-10-13T11:34:25;96600.16;;;20.51;100.00
5872;BME280;2962;51.312;7.378;2023-10-13T11:36:51;96610.59;;;20.24;100.00
5872;BME280;2962;51.312;7.378;2023-10-13T11:39:17;96608.53;;;20.38;100.00
5872;BME280;2962;51.312;7.378;2023-10-13T11:41:48;96607.47;;;20.44;100.00
5872;BME280;2962;51.312;7.378;2023-10-13T11:44:20;96595.84;;;20.28;100.00
5872;BME280;2962;51.312;7.378;2023-10-13T11:46:45;96565.41;;;20.50;100.00
5872;BME280;2962;51.312;7.378;2023-10-13T11:49:14;96578.47;;;20.49;100.00
5872;BME280;2962;51.312;7.378;2023-10-13T11:51:40;96576.09;;;20.38;100.00
5872;BME280;2962;51.312;7.378;2023-10-13T11:54:19;96559.41;;;20.20;100.00
5872;BME280;2962;51.312;7.378;2023-10-13T11:56:45;96572.44;;;20.10;100.00
5872;BME280;2962;51.312;7.378;2023-10-13T11:59:11;96565.59;;;20.02;100.00
5872;BME280;2962;51.312;7.378;2023-10-13T12:01:50;96592.94;;;20.53;100.00
5872;BME280;2962;51.312;7.378;2023-10-13T12:04:34;96556.97;;;21.58;100.00
5872;BME280;2962;51.312;7.378;2023-10-13T12:07:09;96544.06;;;22.25;100.00
5872;BME280;2962;51.312;7.378;2023-10-13T12:09:53;96550.22;;;22.38;100.00
5872;BME280;2962;51.312;7.378;2023-10-13T12:12:22;96545.41;;;21.78;100.00
5872;BME280;2962;51.312;7.378;2023-10-13T12:14:47;96535.41;;;21.16;100.00
5872;BME280;2962;51.312;7.378;2023-10-13T12:17:31;96546.25;;;20.73;100.00
5872;BME280;2962;51.312;7.378;2023-10-13T12:19:59;96525.78;;;20.71;100.00
5872;BME280;2962;51.312;7.378;2023-10-13T12:22:25;96539.09;;;21.13;100.00
5872;BME280;2962;51.312;7.378;2023-10-13T12:24:57;96560.63;;;21.09;100.00
5872;BME280;2962;51.312;7.378;2023-10-13T12:27:22;96538.75;;;20.83;100.00
5872;BME280;2962;51.312;7.378;2023-10-13T12:29:59;96539.91;;;20.64;100.00
5872;BME280;2962;51.312;7.378;2023-10-13T12:32:32;96535.38;;;20.48;100.00
5872;BME280;2962;51.312;7.378;2023-10-13T12:34:59;96528.31;;;20.47;100.00
5872;BME280;2962;51.312;7.378;2023-10-13T12:37:26;96517.94;;;20.29;100.00
5872;BME280;2962;51.312;7.378;2023-10-13T12:40:12;96514.59;;;20.34;100.00
5872;BME280;2962;51.312;7.378;2023-10-13T12:42:56;96553.31;;;20.34;100.00
5872;BME280;2962;51.312;7.378;2023-10-13T12:45:47;96504.50;;;20.09;100.00
5872;BME280;2962;51.312;7.378;2023-10-13T12:48:32;96533.28;;;20.21;100.00
5872;BME280;2962;51.312;7.378;2023-10-13T12:51:17;96524.69;;;20.19;100.00
5872;BME280;2962;51.312;7.378;2023-10-13T12:53:49;96526.84;;;20.24;100.00
5872;BME280;2962;51.312;7.378;2023-10-13T12:56:15;96516.38;;;20.19;100.00
5872;BME280;2962;51.312;7.378;2023-10-13T12:58:41;96543.38;;;20.46;100.00
5872;BME280;2962;51.312;7.378;2023-10-13T13:01:07;96542.25;;;20.34;100.00
5872;BME280;2962;51.312;7.378;2023-10-13T13:03:33;96513.22;;;20.39;100.00
5872;BME280;2962;51.312;7.378;2023-10-13T13:05:59;96516.75;;;20.30;100.00
5872;BME280;2962;51.312;7.378;2023-10-13T13:08:24;96511.97;;;20.31;100.00
5872;BME280;2962;51.312;7.378;2023-10-13T13:10:50;96516.38;;;20.50;100.00
5872;BME280;2962;51.312;7.378;2023-10-13T13:13:16;96493.81;;;20.61;100.00
5872;BME280;2962;51.312;7.378;2023-10-13T13:15:50;96524.44;;;20.76;100.00
5872;BME280;2962;51.312;7.378;2023-10-13T13:18:15;96519.78;;;20.63;100.00
5872;BME280;2962;51.312;7.378;2023-10-13T13:20:40;96523.00;;;20.53;100.00
5872;BME280;2962;51.312;7.378;2023-10-13T13:23:18;96514.47;;;20.38;100.00
5872;BME280;2962;51.312;7.378;2023-10-13T13:25:45;96512.75;;;20.40;100.00
5872;BME280;2962;51.312;7.378;2023-10-13T13:28:10;96517.66;;;20.36;100.00
5872;BME280;2962;51.312;7.378;2023-10-13T13:30:36;96508.56;;;20.27;100.00
5872;BME280;2962;51.312;7.378;2023-10-13T13:33:04;96504.75;;;20.33;100.00
5872;BME280;2962;51.312;7.378;2023-10-13T13:35:36;96516.75;;;20.30;100.00
5872;BME280;2962;51.312;7.378;2023-10-13T13:38:02;96513.38;;;20.35;100.00
5872;BME280;2962;51.312;7.378;2023-10-13T13:40:37;96513.13;;;20.52;100.00
5872;BME280;2962;51.312;7.378;2023-10-13T13:43:02;96517.22;;;20.38;100.00
5872;BME280;2962;51.312;7.378;2023-10-13T13:45:33;96518.53;;;20.24;100.00